Time;durP1;ratioP1;P1;durP2;ratioP2;P2;SDS_P1;SDS_P2;PMS_P1;PMS_P2;Temp;Humidity;BMP_temperature;BMP_pressure;BME280_temperature;BME280_humidity;BME280_pressure;Samples;Min_cycle;Max_cycle;Signal;HPM_P1;HPM_P2
2021/09/25 00:01:41;;;;;;;20.50;13.90;;;;;;;;;;4954699;28;20114;-67
2021/09/25 00:04:08;;;;;;;19.67;13.30;;;;;;;;;;4954645;29;20147;-68
2021/09/25 00:06:35;;;;;;;26.20;14.95;;;;;;;;;;4954419;29;20079;-68
2021/09/25 00:09:02;;;;;;;18.35;11.52;;;;;;;;;;4954881;29;20126;-68
2021/09/25 00:11:30;;;;;;;17.80;12.00;;;;;;;;;;4954053;29;20146;-67
2021/09/25 00:13:58;;;;;;;16.27;10.75;;;;;;;;;;4953575;28;20512;-68
2021/09/25 00:16:26;;;;;;;15.50;9.95;;;;;;;;;;4953922;29;20062;-68
2021/09/25 00:18:54;;;;;;;15.93;11.00;;;;;;;;;;4953906;29;20062;-68
2021/09/25 00:21:20;;;;;;;16.33;10.35;;;;;;;;;;4953855;29;20051;-68
2021/09/25 00:23:48;;;;;;;17.88;11.02;;;;;;;;;;4953610;29;20057;-68
2021/09/25 00:26:15;;;;;;;16.88;10.93;;;;;;;;;;4953494;29;20047;-68
2021/09/25 00:28:44;;;;;;;15.77;10.95;;;;;;;;;;4953818;29;20083;-68
2021/09/25 00:31:11;;;;;;;17.65;11.35;;;;;;;;;;4953680;29;20051;-68
2021/09/25 00:33:38;;;;;;;16.77;10.43;;;;;;;;;;4953668;29;20047;-68
2021/09/25 00:36:06;;;;;;;15.65;10.07;;;;;;;;;;4953906;29;20106;-68
2021/09/25 00:38:36;;;;;;;16.95;10.63;;;;;;;;;;4954928;28;20043;-68
2021/09/25 00:41:03;;;;;;;15.93;9.48;;;;;;;;;;4957331;29;20055;-68
2021/09/25 00:43:30;;;;;;;14.07;9.07;;;;;;;;;;4957233;29;20055;-68
2021/09/25 00:45:59;;;;;;;15.50;9.52;;;;;;;;;;4957355;29;20057;-68
2021/09/25 00:48:26;;;;;;;15.82;9.98;;;;;;;;;;4957301;29;20049;-68
2021/09/25 00:50:53;;;;;;;15.88;9.70;;;;;;;;;;4957137;29;20051;-68
2021/09/25 00:53:20;;;;;;;14.90;8.93;;;;;;;;;;4957217;29;20101;-67
2021/09/25 00:55:48;;;;;;;16.20;10.50;;;;;;;;;;4956902;29;20047;-68
2021/09/25 00:58:15;;;;;;;17.25;11.25;;;;;;;;;;4957118;28;20058;-68
2021/09/25 01:00:43;;;;;;;18.08;11.40;;;;;;;;;;4957108;29;20058;-68
2021/09/25 01:03:11;;;;;;;13.85;9.73;;;;;;;;;;4956892;29;20110;-68
2021/09/25 01:05:41;;;;;;;16.75;10.45;;;;;;;;;;4956864;29;20138;-68
2021/09/25 01:08:08;;;;;;;18.05;11.20;;;;;;;;;;4957281;29;20047;-68
2021/09/25 01:10:35;;;;;;;16.30;10.20;;;;;;;;;;4956970;29;20047;-68
2021/09/25 01:13:02;;;;;;;15.15;9.18;;;;;;;;;;4956658;28;20051;-68
2021/09/25 01:15:29;;;;;;;16.65;9.18;;;;;;;;;;4956837;29;20137;-68
2021/09/25 01:17:56;;;;;;;13.88;8.93;;;;;;;;;;4956862;28;20047;-69
2021/09/25 01:20:25;;;;;;;12.73;9.57;;;;;;;;;;4957057;29;20086;-68
2021/09/25 01:22:53;;;;;;;14.10;9.45;;;;;;;;;;4957036;29;20055;-68
2021/09/25 01:25:20;;;;;;;13.70;9.18;;;;;;;;;;4957317;29;20432;-68
2021/09/25 01:27:47;;;;;;;16.08;10.23;;;;;;;;;;4957686;28;20054;-68
2021/09/25 01:30:16;;;;;;;15.00;9.32;;;;;;;;;;4956782;29;20077;-69
2021/09/25 01:32:44;;;;;;;13.73;9.05;;;;;;;;;;4956406;29;20090;-68
2021/09/25 01:35:12;;;;;;;14.95;9.63;;;;;;;;;;4956670;29;20545;-68
2021/09/25 01:37:40;;;;;;;15.00;9.63;;;;;;;;;;4956827;29;20408;-68
2021/09/25 01:40:10;;;;;;;15.85;10.25;;;;;;;;;;4956224;29;20055;-68
2021/09/25 01:42:37;;;;;;;14.07;9.70;;;;;;;;;;4956403;29;20059;-68
2021/09/25 01:45:06;;;;;;;14.02;9.20;;;;;;;;;;4956104;29;20138;-68
2021/09/25 01:47:33;;;;;;;15.73;9.95;;;;;;;;;;4956318;29;20427;-68
2021/09/25 01:50:02;;;;;;;15.18;9.45;;;;;;;;;;4955977;28;20419;-68
2021/09/25 01:52:30;;;;;;;14.93;9.60;;;;;;;;;;4956060;29;20555;-68
2021/09/25 01:54:57;;;;;;;16.17;10.23;;;;;;;;;;4956412;29;20413;-68
2021/09/25 01:57:26;;;;;;;16.58;10.20;;;;;;;;;;4956169;29;20058;-68
2021/09/25 01:59:53;;;;;;;16.83;9.90;;;;;;;;;;4956540;28;20051;-68
2021/09/25 02:02:20;;;;;;;16.92;10.45;;;;;;;;;;4955731;29;20432;-68
2021/09/25 02:04:48;;;;;;;17.55;11.02;;;;;;;;;;5008800;22;20133;-70
2021/09/25 02:07:15;;;;;;;16.00;9.82;;;;;;;;;;5016656;28;20049;-69
2021/09/25 02:09:42;;;;;;;17.55;12.25;;;;;;;;;;5016893;28;20042;-70
2021/09/25 02:12:10;;;;;;;17.67;10.55;;;;;;;;;;5017190;28;20072;-70
2021/09/25 02:14:39;;;;;;;17.27;10.40;;;;;;;;;;5017006;28;20060;-69
2021/09/25 02:17:06;;;;;;;16.40;10.65;;;;;;;;;;5017630;28;20056;-70
2021/09/25 02:19:33;;;;;;;15.35;10.25;;;;;;;;;;5017900;28;20091;-69
2021/09/25 02:22:00;;;;;;;15.73;11.00;;;;;;;;;;5017650;28;20054;-70
2021/09/25 02:24:27;;;;;;;17.63;11.15;;;;;;;;;;5017961;28;20109;-69
2021/09/25 02:26:55;;;;;;;17.65;12.23;;;;;;;;;;5016931;28;20061;-69
2021/09/25 02:29:23;;;;;;;15.05;10.25;;;;;;;;;;5016746;28;20077;-69
2021/09/25 02:31:51;;;;;;;17.88;10.82;;;;;;;;;;5017603;28;20132;-70
2021/09/25 02:34:18;;;;;;;16.52;10.45;;;;;;;;;;5016313;28;20582;-69
2021/09/25 02:36:45;;;;;;;17.38;11.68;;;;;;;;;;5016941;28;20045;-70
2021/09/25 02:39:12;;;;;;;17.02;10.07;;;;;;;;;;5016863;28;20133;-69
2021/09/25 02:41:39;;;;;;;16.40;10.05;;;;;;;;;;5016962;28;20053;-70
2021/09/25 02:44:06;;;;;;;15.20;10.32;;;;;;;;;;5016335;28;20050;-70
2021/09/25 02:46:33;;;;;;;15.02;9.07;;;;;;;;;;5016320;28;20049;-70
2021/09/25 02:49:02;;;;;;;16.63;10.07;;;;;;;;;;5016333;28;20056;-70
2021/09/25 02:51:29;;;;;;;17.40;10.88;;;;;;;;;;5016399;28;20125;-70
2021/09/25 02:53:56;;;;;;;16.45;9.80;;;;;;;;;;5015765;28;20056;-70
2021/09/25 02:56:23;;;;;;;15.60;9.98;;;;;;;;;;5002959;28;20115;-70
2021/09/25 02:58:50;;;;;;;18.00;10.95;;;;;;;;;;4997187;28;20046;-70
2021/09/25 03:01:17;;;;;;;15.25;10.43;;;;;;;;;;4996901;28;20061;-70
2021/09/25 03:03:44;;;;;;;14.95;9.73;;;;;;;;;;4996612;28;20060;-70
2021/09/25 03:06:13;;;;;;;16.33;11.18;;;;;;;;;;4996897;28;20057;-69
2021/09/25 03:08:40;;;;;;;17.48;11.05;;;;;;;;;;4996432;28;20058;-69
2021/09/25 03:11:07;;;;;;;16.70;10.07;;;;;;;;;;4997030;28;20130;-69
2021/09/25 03:13:34;;;;;;;18.33;11.13;;;;;;;;;;4996726;28;20050;-70
2021/09/25 03:16:01;;;;;;;15.25;9.93;;;;;;;;;;4997424;28;20046;-69
2021/09/25 03:18:28;;;;;;;16.55;10.48;;;;;;;;;;4997246;28;20068;-69
2021/09/25 03:20:55;;;;;;;16.17;10.52;;;;;;;;;;4996956;28;20064;-69
2021/09/25 03:23:24;;;;;;;16.98;10.70;;;;;;;;;;4996413;28;20437;-69
2021/09/25 03:25:51;;;;;;;17.88;12.27;;;;;;;;;;4995695;28;20054;-70
2021/09/25 03:28:18;;;;;;;18.17;11.13;;;;;;;;;;4996046;28;20056;-69
2021/09/25 03:30:45;;;;;;;17.42;10.57;;;;;;;;;;4996838;28;20404;-70
2021/09/25 03:33:12;;;;;;;17.70;10.98;;;;;;;;;;4996554;28;20129;-70
2021/09/25 03:35:46;;;;;;;16.73;10.32;;;;;;;;;;4996334;28;20408;-70
2021/09/25 03:38:13;;;;;;;15.82;9.75;;;;;;;;;;4996495;28;20050;-70
2021/09/25 03:40:41;;;;;;;13.70;9.25;;;;;;;;;;4996970;28;20061;-69
2021/09/25 03:43:08;;;;;;;15.30;9.90;;;;;;;;;;4996380;28;20050;-69
2021/09/25 03:45:35;;;;;;;17.35;10.40;;;;;;;;;;4997158;28;20054;-69
2021/09/25 03:48:05;;;;;;;16.90;12.00;;;;;;;;;;4996575;28;20050;-69
2021/09/25 03:50:32;;;;;;;12.80;9.25;;;;;;;;;;4997904;28;20057;-69
2021/09/25 03:52:59;;;;;;;15.05;9.68;;;;;;;;;;4998172;28;20085;-69
2021/09/25 03:55:26;;;;;;;14.30;9.98;;;;;;;;;;5004530;28;20046;-69
2021/09/25 03:57:56;;;;;;;15.85;9.40;;;;;;;;;;5018340;28;20052;-69
2021/09/25 04:00:23;;;;;;;15.32;10.02;;;;;;;;;;5018500;28;20496;-69
2021/09/25 04:02:51;;;;;;;16.38;11.10;;;;;;;;;;5018499;28;20129;-69
2021/09/25 04:05:18;;;;;;;14.30;10.25;;;;;;;;;;5017482;28;20054;-69
2021/09/25 04:07:45;;;;;;;17.27;11.30;;;;;;;;;;5017555;28;20046;-70
2021/09/25 04:10:13;;;;;;;15.68;10.63;;;;;;;;;;5017739;28;20050;-70
2021/09/25 04:12:40;;;;;;;17.90;10.25;;;;;;;;;;5019448;28;20050;-70
2021/09/25 04:15:10;;;;;;;19.33;11.07;;;;;;;;;;5021676;28;20053;-69
2021/09/25 04:17:37;;;;;;;18.17;11.27;;;;;;;;;;5021589;28;20128;-69
2021/09/25 04:20:06;;;;;;;15.68;10.88;;;;;;;;;;5021649;28;20093;-69
2021/09/25 04:22:33;;;;;;;15.77;10.88;;;;;;;;;;5021311;28;20085;-70
2021/09/25 04:25:01;;;;;;;16.45;9.88;;;;;;;;;;5021090;28;20077;-70
2021/09/25 04:27:29;;;;;;;16.77;10.88;;;;;;;;;;5021121;28;20414;-70
2021/09/25 04:29:57;;;;;;;16.02;10.05;;;;;;;;;;5021002;28;20053;-70
2021/09/25 04:32:25;;;;;;;14.98;9.70;;;;;;;;;;5020992;28;20042;-70
2021/09/25 04:34:52;;;;;;;16.38;10.38;;;;;;;;;;5021107;28;20082;-71
2021/09/25 04:37:20;;;;;;;17.15;10.05;;;;;;;;;;5021382;28;20096;-70
2021/09/25 04:39:47;;;;;;;12.70;8.20;;;;;;;;;;5020780;28;20137;-71
2021/09/25 04:42:14;;;;;;;14.88;8.90;;;;;;;;;;5020575;28;20060;-70
2021/09/25 04:44:41;;;;;;;13.48;9.15;;;;;;;;;;5020404;28;20476;-70
2021/09/25 04:47:08;;;;;;;15.02;9.20;;;;;;;;;;5020054;28;20049;-71
2021/09/25 04:49:37;;;;;;;14.27;8.75;;;;;;;;;;5019470;28;20489;-71
2021/09/25 04:52:04;;;;;;;15.88;9.35;;;;;;;;;;5020031;28;20085;-70
2021/09/25 04:54:31;;;;;;;13.65;9.20;;;;;;;;;;5019712;28;20052;-70
2021/09/25 04:56:58;;;;;;;14.10;8.82;;;;;;;;;;5000630;28;20056;-70
2021/09/25 04:59:25;;;;;;;14.57;8.85;;;;;;;;;;5000499;28;20060;-70
2021/09/25 05:01:52;;;;;;;13.20;8.18;;;;;;;;;;5000149;28;20050;-69
2021/09/25 05:04:19;;;;;;;11.45;8.13;;;;;;;;;;4999396;28;20471;-69
2021/09/25 05:06:47;;;;;;;12.20;7.60;;;;;;;;;;4999804;28;20049;-70
2021/09/25 05:09:14;;;;;;;14.55;7.30;;;;;;;;;;4999938;28;20129;-70
2021/09/25 05:11:41;;;;;;;9.90;7.05;;;;;;;;;;4999820;28;20502;-69
2021/09/25 05:14:08;;;;;;;13.88;7.82;;;;;;;;;;4999933;28;20435;-69
2021/09/25 05:16:35;;;;;;;11.65;7.55;;;;;;;;;;4999912;28;20046;-70
2021/09/25 05:19:02;;;;;;;12.95;8.23;;;;;;;;;;4998746;28;20137;-69
2021/09/25 05:21:29;;;;;;;13.57;8.48;;;;;;;;;;4999450;28;20411;-69
2021/09/25 05:23:58;;;;;;;15.77;9.68;;;;;;;;;;4998849;28;20057;-69
2021/09/25 05:26:25;;;;;;;15.60;10.10;;;;;;;;;;4999475;28;20046;-69
2021/09/25 05:28:52;;;;;;;23.60;14.73;;;;;;;;;;4999205;28;20050;-70
2021/09/25 05:31:18;;;;;;;18.20;12.18;;;;;;;;;;4999815;28;20529;-70
2021/09/25 05:33:46;;;;;;;15.10;8.80;;;;;;;;;;4999095;28;20042;-69
2021/09/25 05:36:13;;;;;;;16.25;9.90;;;;;;;;;;4999443;28;20042;-69
2021/09/25 05:38:40;;;;;;;18.17;9.48;;;;;;;;;;4999326;28;20420;-69
2021/09/25 05:41:08;;;;;;;12.98;8.90;;;;;;;;;;4999290;28;20142;-69
2021/09/25 05:43:35;;;;;;;13.13;8.30;;;;;;;;;;4998743;28;20053;-69
2021/09/25 05:46:02;;;;;;;11.85;7.72;;;;;;;;;;4999034;28;20157;-70
2021/09/25 05:48:30;;;;;;;11.07;7.20;;;;;;;;;;4998983;28;20050;-69
2021/09/25 05:50:57;;;;;;;14.25;9.25;;;;;;;;;;4998498;28;20422;-69
2021/09/25 05:53:24;;;;;;;18.42;11.35;;;;;;;;;;4998216;28;20132;-69
2021/09/25 05:55:51;;;;;;;15.98;10.27;;;;;;;;;;5010166;28;20041;-69
2021/09/25 05:58:20;;;;;;;13.32;9.00;;;;;;;;;;5019314;28;20049;-69
2021/09/25 06:00:47;;;;;;;13.25;8.55;;;;;;;;;;5018122;28;20128;-69
2021/09/25 06:03:15;;;;;;;12.48;7.20;;;;;;;;;;5017461;28;20041;-69
2021/09/25 06:05:42;;;;;;;11.35;7.65;;;;;;;;;;5017220;28;20124;-70
2021/09/25 06:08:09;;;;;;;11.18;6.53;;;;;;;;;;5017670;28;20137;-70
2021/09/25 06:10:37;;;;;;;12.73;7.75;;;;;;;;;;5018043;28;20046;-70
2021/09/25 06:13:06;;;;;;;12.27;7.25;;;;;;;;;;5017717;28;20058;-69
2021/09/25 06:15:35;;;;;;;11.45;7.38;;;;;;;;;;5017842;28;20049;-69
2021/09/25 06:18:02;;;;;;;12.52;7.95;;;;;;;;;;5017404;28;20499;-70
2021/09/25 06:20:29;;;;;;;12.25;7.72;;;;;;;;;;5018219;28;20046;-69
2021/09/25 06:22:56;;;;;;;12.38;8.27;;;;;;;;;;5017965;28;20057;-69
2021/09/25 06:25:24;;;;;;;15.68;8.82;;;;;;;;;;5017853;28;20069;-70
2021/09/25 06:27:51;;;;;;;14.70;9.13;;;;;;;;;;5017684;28;20129;-70
2021/09/25 06:30:18;;;;;;;15.38;9.95;;;;;;;;;;5016845;28;20042;-70
2021/09/25 06:32:46;;;;;;;25.75;13.55;;;;;;;;;;5017424;28;20049;-70
2021/09/25 06:35:15;;;;;;;16.05;10.77;;;;;;;;;;5017143;28;20118;-70
2021/09/25 06:37:42;;;;;;;14.95;9.93;;;;;;;;;;5018162;28;20132;-70
2021/09/25 06:40:11;;;;;;;21.17;11.02;;;;;;;;;;5018943;28;20050;-70
2021/09/25 06:42:38;;;;;;;16.52;9.98;;;;;;;;;;5019809;28;20522;-70
2021/09/25 06:45:07;;;;;;;14.38;9.38;;;;;;;;;;5018951;28;20054;-69
2021/09/25 06:47:34;;;;;;;17.15;10.88;;;;;;;;;;5019155;28;20097;-70
2021/09/25 06:50:04;;;;;;;14.57;9.65;;;;;;;;;;5018994;28;20050;-71
2021/09/25 06:52:31;;;;;;;14.73;9.68;;;;;;;;;;5018164;28;20522;-70
2021/09/25 06:54:58;;;;;;;15.80;9.95;;;;;;;;;;5015048;28;20132;-70
2021/09/25 06:57:26;;;;;;;17.15;10.73;;;;;;;;;;4998129;28;20062;-71
2021/09/25 06:59:53;;;;;;;17.75;11.85;;;;;;;;;;4998388;28;20050;-70
2021/09/25 07:02:20;;;;;;;20.92;10.85;;;;;;;;;;4998606;28;20042;-70
2021/09/25 07:04:47;;;;;;;15.45;11.00;;;;;;;;;;4997921;28;20053;-70
2021/09/25 07:07:15;;;;;;;15.07;10.02;;;;;;;;;;4997484;28;20129;-71
2021/09/25 07:09:42;;;;;;;18.58;11.80;;;;;;;;;;4996902;28;20046;-69
2021/09/25 07:12:10;;;;;;;23.77;15.05;;;;;;;;;;4996583;28;20108;-70
2021/09/25 07:14:37;;;;;;;26.17;16.13;;;;;;;;;;5004486;28;20052;-70
2021/09/25 07:17:05;;;;;;;29.80;17.20;;;;;;;;;;5006453;28;20050;-71
2021/09/25 07:19:32;;;;;;;14.57;9.63;;;;;;;;;;5005758;28;20141;-71
2021/09/25 07:21:59;;;;;;;13.80;9.05;;;;;;;;;;5001418;28;20101;-71
2021/09/25 07:24:27;;;;;;;12.10;7.40;;;;;;;;;;5000497;28;20129;-70
2021/09/25 07:26:54;;;;;;;12.77;8.13;;;;;;;;;;4996442;28;20054;-70
2021/09/25 07:29:21;;;;;;;14.05;8.50;;;;;;;;;;4996353;28;20136;-70
2021/09/25 07:31:48;;;;;;;13.25;7.88;;;;;;;;;;4995640;28;20420;-71
2021/09/25 07:34:15;;;;;;;14.25;8.65;;;;;;;;;;4995566;28;20061;-71
2021/09/25 07:36:42;;;;;;;18.15;9.57;;;;;;;;;;4995779;28;20061;-71
2021/09/25 07:39:09;;;;;;;17.05;9.90;;;;;;;;;;4996505;28;20054;-71
2021/09/25 07:41:38;;;;;;;17.17;9.48;;;;;;;;;;4996322;28;20052;-71
2021/09/25 07:44:06;;;;;;;15.57;9.88;;;;;;;;;;4996338;28;20499;-70
2021/09/25 07:46:34;;;;;;;16.30;10.35;;;;;;;;;;5013973;28;20050;-70
2021/09/25 07:49:01;;;;;;;15.35;9.55;;;;;;;;;;5014982;28;20128;-70
2021/09/25 07:51:28;;;;;;;16.33;9.32;;;;;;;;;;5015454;28;20495;-71
2021/09/25 07:53:55;;;;;;;15.88;11.23;;;;;;;;;;5014859;28;20089;-71
2021/09/25 07:56:23;;;;;;;16.55;9.90;;;;;;;;;;5000660;28;20129;-70
2021/09/25 07:58:51;;;;;;;15.45;9.68;;;;;;;;;;4995760;28;20085;-70
2021/09/25 08:01:19;;;;;;;16.13;9.80;;;;;;;;;;4994937;28;20046;-70
2021/09/25 08:03:46;;;;;;;15.52;10.10;;;;;;;;;;4994881;28;20046;-69
2021/09/25 08:06:13;;;;;;;14.70;9.38;;;;;;;;;;4994847;28;20096;-70
2021/09/25 08:08:40;;;;;;;16.27;10.02;;;;;;;;;;4994178;28;20053;-70
2021/09/25 08:11:06;;;;;;;18.15;10.52;;;;;;;;;;4994285;28;20046;-70
2021/09/25 08:13:34;;;;;;;16.58;9.25;;;;;;;;;;4993166;28;20134;-70
2021/09/25 08:16:03;;;;;;;14.73;8.95;;;;;;;;;;4993516;28;20047;-71
2021/09/25 08:18:30;;;;;;;14.45;8.80;;;;;;;;;;5016528;23;20057;-83
2021/09/25 08:20:57;;;;;;;16.73;9.10;;;;;;;;;;5018118;28;20523;-83
2021/09/25 08:23:25;;;;;;;13.32;8.82;;;;;;;;;;5025200;28;20061;-81
2021/09/25 08:25:53;;;;;;;16.77;8.95;;;;;;;;;;5037410;28;20038;-80
2021/09/25 08:28:20;;;;;;;15.68;9.50;;;;;;;;;;5036771;28;20050;-81
2021/09/25 08:30:48;;;;;;;11.43;8.15;;;;;;;;;;5036575;28;20038;-85
2021/09/25 08:33:16;;;;;;;14.05;8.38;;;;;;;;;;5019741;28;20046;-82
2021/09/25 08:35:43;;;;;;;12.57;7.93;;;;;;;;;;5032685;28;20065;-83
2021/09/25 08:38:11;;;;;;;13.30;8.38;;;;;;;;;;5024171;28;20057;-86
2021/09/25 08:40:38;;;;;;;13.82;9.13;;;;;;;;;;5017992;28;20050;-84
2021/09/25 08:43:05;;;;;;;15.00;7.95;;;;;;;;;;5017815;28;20062;-85
2021/09/25 08:45:32;;;;;;;12.18;8.25;;;;;;;;;;5015105;28;20050;-84
2021/09/25 08:47:59;;;;;;;19.50;9.63;;;;;;;;;;5015524;28;20050;-87
2021/09/25 08:50:29;;;;;;;54.33;25.52;;;;;;;;;;5016016;28;20049;-87
2021/09/25 08:53:12;;;;;;;46.08;24.73;;;;;;;;;;5014772;28;20145;-88
2021/09/25 08:55:42;;;;;;;36.92;20.10;;;;;;;;;;5015424;28;20049;-86
2021/09/25 08:58:12;;;;;;;26.80;15.60;;;;;;;;;;5016034;28;20504;-85
2021/09/25 09:00:43;;;;;;;16.65;9.27;;;;;;;;;;5020687;28;20045;-84
2021/09/25 09:03:24;;;;;;;14.20;9.40;;;;;;;;;;5026162;28;20081;-85
2021/09/25 09:05:54;;;;;;;17.60;9.27;;;;;;;;;;5036758;28;20057;-85
2021/09/25 09:08:22;;;;;;;20.55;12.07;;;;;;;;;;5028494;28;20048;-85
2021/09/25 09:10:49;;;;;;;18.50;11.05;;;;;;;;;;5020827;28;20138;-85
2021/09/25 09:13:17;;;;;;;17.58;9.52;;;;;;;;;;5011424;28;20060;-86
2021/09/25 09:15:44;;;;;;;16.00;8.55;;;;;;;;;;5009150;28;20077;-86
2021/09/25 09:18:15;;;;;;;13.77;9.27;;;;;;;;;;5011218;28;20059;-86
2021/09/25 09:21:03;;;;;;;13.95;8.23;;;;;;;;;;5014078;28;20049;-86
2021/09/25 09:23:31;;;;;;;13.00;8.20;;;;;;;;;;5018122;28;20042;-86
2021/09/25 09:25:58;;;;;;;10.90;7.50;;;;;;;;;;5019249;28;20477;-84
2021/09/25 09:28:29;;;;;;;12.23;8.02;;;;;;;;;;5017748;28;20492;-85
2021/09/25 09:30:58;;;;;;;14.10;8.23;;;;;;;;;;5017629;28;20137;-86
2021/09/25 09:33:30;;;;;;;22.65;14.43;;;;;;;;;;5018292;28;20045;-84
2021/09/25 09:36:24;;;;;;;27.65;15.95;;;;;;;;;;5019616;28;20511;-84
2021/09/25 09:38:54;;;;;;;17.27;10.93;;;;;;;;;;5010596;28;20061;-84
2021/09/25 09:41:24;;;;;;;15.43;9.15;;;;;;;;;;5020707;28;20054;-84
2021/09/25 09:43:53;;;;;;;13.93;9.10;;;;;;;;;;5019980;28;20065;-84
2021/09/25 09:46:27;;;;;;;17.05;9.45;;;;;;;;;;5022121;28;20054;-85
2021/09/25 09:48:54;;;;;;;15.13;8.90;;;;;;;;;;5022489;28;20378;-84
2021/09/25 09:51:39;;;;;;;17.48;12.30;;;;;;;;;;5020394;28;20180;-84
2021/09/25 09:54:13;;;;;;;15.82;9.98;;;;;;;;;;5017062;28;20421;-84
2021/09/25 09:56:41;;;;;;;22.73;15.75;;;;;;;;;;5016363;28;20050;-84
2021/09/25 09:59:09;;;;;;;17.83;11.85;;;;;;;;;;5017804;28;20500;-84
2021/09/25 10:01:38;;;;;;;19.17;12.43;;;;;;;;;;5016847;28;20052;-83
2021/09/25 10:04:06;;;;;;;14.52;8.60;;;;;;;;;;5000245;28;20428;-83
2021/09/25 10:06:36;;;;;;;16.02;10.60;;;;;;;;;;5019431;28;20110;-85
2021/09/25 10:09:07;;;;;;;15.77;9.57;;;;;;;;;;5022743;28;20611;-84
2021/09/25 10:11:35;;;;;;;18.48;10.35;;;;;;;;;;5023208;28;20050;-85
2021/09/25 10:14:03;;;;;;;12.68;8.65;;;;;;;;;;5020914;28;20054;-85
2021/09/25 10:16:31;;;;;;;15.32;8.55;;;;;;;;;;5018932;28;20397;-85
2021/09/25 10:19:01;;;;;;;14.52;8.85;;;;;;;;;;5018773;28;20076;-86
2021/09/25 10:21:29;;;;;;;15.10;8.38;;;;;;;;;;5020943;28;20460;-85
2021/09/25 10:24:01;;;;;;;13.02;7.93;;;;;;;;;;5019517;28;20133;-85
2021/09/25 10:26:29;;;;;;;12.60;8.00;;;;;;;;;;5020917;28;20049;-86
2021/09/25 10:28:57;;;;;;;13.43;8.82;;;;;;;;;;5020500;28;20053;-85
2021/09/25 10:31:25;;;;;;;13.73;8.35;;;;;;;;;;5019078;28;20042;-86
2021/09/25 10:34:09;;;;;;;13.80;7.45;;;;;;;;;;5019888;28;20042;-85
2021/09/25 10:36:39;;;;;;;12.45;7.68;;;;;;;;;;5021211;28;20050;-86
2021/09/25 10:39:25;;;;;;;33.60;19.20;;;;;;;;;;5021506;28;20572;-85
2021/09/25 10:42:10;;;;;;;12.57;8.55;;;;;;;;;;5019626;28;20050;-86
2021/09/25 10:44:43;;;;;;;12.65;7.78;;;;;;;;;;5020347;28;20053;-85
2021/09/25 10:47:13;;;;;;;14.13;10.38;;;;;;;;;;5031518;28;20069;-85
2021/09/25 10:49:48;;;;;;;13.60;8.48;;;;;;;;;;5029323;28;20083;-85
2021/09/25 10:52:17;;;;;;;13.52;8.57;;;;;;;;;;5028647;28;20050;-86
2021/09/25 10:54:46;;;;;;;18.27;10.33;;;;;;;;;;5028660;28;20080;-85
2021/09/25 10:57:18;;;;;;;25.48;13.70;;;;;;;;;;5029626;28;20358;-85
2021/09/25 11:00:20;;;;;;;16.73;8.85;;;;;;;;;;5030738;28;20050;-85
2021/09/25 11:02:47;;;;;;;21.52;11.88;;;;;;;;;;5029276;28;20053;-85
2021/09/25 11:05:19;;;;;;;21.23;11.10;;;;;;;;;;5036628;28;20033;-86
2021/09/25 11:08:00;;;;;;;15.75;8.60;;;;;;;;;;5029712;28;20056;-85
2021/09/25 11:11:07;;;;;;;13.07;7.97;;;;;;;;;;5017182;28;20077;-85
2021/09/25 11:14:11;;;;;;;14.85;10.38;;;;;;;;;;5016839;28;20061;-85
2021/09/25 11:17:00;;;;;;;16.75;10.63;;;;;;;;;;5015665;28;20501;-84
2021/09/25 11:19:45;;;;;;;12.25;7.40;;;;;;;;;;5016946;28;20500;-86
2021/09/25 11:22:19;;;;;;;12.35;7.78;;;;;;;;;;5014765;28;20061;-85
2021/09/25 11:24:48;;;;;;;11.43;6.75;;;;;;;;;;5015580;28;20416;-84
2021/09/25 11:27:19;;;;;;;10.23;7.27;;;;;;;;;;5014962;28;20141;-85
2021/09/25 11:29:55;;;;;;;10.82;7.28;;;;;;;;;;5014047;28;20126;-85
2021/09/25 11:32:26;;;;;;;11.45;6.03;;;;;;;;;;5015396;28;20042;-84
2021/09/25 11:34:53;;;;;;;9.70;6.65;;;;;;;;;;5015584;28;20137;-84
2021/09/25 11:37:23;;;;;;;10.82;6.80;;;;;;;;;;5037949;28;20061;-83
2021/09/25 11:39:51;;;;;;;8.98;5.97;;;;;;;;;;5036311;28;20026;-85
2021/09/25 11:42:22;;;;;;;11.43;6.80;;;;;;;;;;5035933;28;20042;-87
2021/09/25 11:44:56;;;;;;;9.55;6.60;;;;;;;;;;5025484;28;20125;-85
2021/09/25 11:47:32;;;;;;;9.13;6.47;;;;;;;;;;5016965;28;20045;-82
2021/09/25 11:50:01;;;;;;;10.02;6.70;;;;;;;;;;5013338;28;20088;-85
2021/09/25 11:52:29;;;;;;;9.80;6.38;;;;;;;;;;5015702;28;20053;-85
2021/09/25 11:54:57;;;;;;;9.98;6.63;;;;;;;;;;5023135;28;20042;-86
2021/09/25 11:57:26;;;;;;;10.30;6.75;;;;;;;;;;5016672;28;20475;-85
2021/09/25 11:59:54;;;;;;;9.70;6.25;;;;;;;;;;5015968;28;20049;-85
2021/09/25 12:02:39;;;;;;;9.00;5.97;;;;;;;;;;5015097;28;20054;-85
2021/09/25 12:05:08;;;;;;;11.30;6.40;;;;;;;;;;5020550;28;20053;-82
2021/09/25 12:07:42;;;;;;;7.93;6.10;;;;;;;;;;5032965;28;20057;-82
2021/09/25 12:10:17;;;;;;;8.65;6.18;;;;;;;;;;5022825;28;20136;-84
2021/09/25 12:12:46;;;;;;;11.65;8.30;;;;;;;;;;5013354;28;20050;-84
2021/09/25 12:15:22;;;;;;;11.40;8.50;;;;;;;;;;5013710;28;20050;-84
2021/09/25 12:18:16;;;;;;;9.32;6.45;;;;;;;;;;5015721;28;20048;-84
2021/09/25 12:20:45;;;;;;;10.32;6.75;;;;;;;;;;5022572;28;20053;-84
2021/09/25 12:23:19;;;;;;;15.40;9.38;;;;;;;;;;5014130;28;20049;-84
2021/09/25 12:25:46;;;;;;;11.48;7.50;;;;;;;;;;5015278;28;20061;-84
2021/09/25 12:28:35;;;;;;;8.68;5.97;;;;;;;;;;5015734;28;20053;-85
2021/09/25 12:31:04;;;;;;;8.93;6.07;;;;;;;;;;5016853;28;20058;-85
2021/09/25 12:33:32;;;;;;;11.32;6.85;;;;;;;;;;5015661;28;20053;-85
2021/09/25 12:36:10;;;;;;;11.60;6.95;;;;;;;;;;5018613;28;20099;-85
2021/09/25 12:38:40;;;;;;;11.50;7.55;;;;;;;;;;5018305;28;20057;-85
2021/09/25 12:41:08;;;;;;;;;;;;;;;;;;5019886;28;20061;-85
2021/09/25 12:43:43;;;;;;;11.25;6.85;;;;;;;;;;5018718;28;19922;-85
2021/09/25 12:46:13;;;;;;;11.68;7.25;;;;;;;;;;5020159;28;20144;-85
2021/09/25 12:49:00;;;;;;;;;;;;;;;;;;5022357;28;20046;-84
2021/09/25 12:51:28;;;;;;;9.40;6.50;;;;;;;;;;5019976;28;19921;-85
2021/09/25 12:53:55;;;;;;;10.20;6.55;;;;;;;;;;5018936;28;20420;-86
2021/09/25 12:56:22;;;;;;;12.30;7.93;;;;;;;;;;5017865;28;20057;-85
2021/09/25 12:58:52;;;;;;;12.63;6.93;;;;;;;;;;5018346;28;20046;-85
2021/09/25 13:01:26;;;;;;;9.65;6.68;;;;;;;;;;5017580;28;20050;-84
2021/09/25 13:03:54;;;;;;;10.05;6.65;;;;;;;;;;5016522;28;20046;-85
2021/09/25 13:06:23;;;;;;;9.15;6.55;;;;;;;;;;5019441;28;20416;-85
2021/09/25 13:08:58;;;;;;;9.77;6.32;;;;;;;;;;5019774;28;20053;-85
2021/09/25 13:11:26;;;;;;;10.75;6.03;;;;;;;;;;5020699;28;20053;-85
2021/09/25 13:14:11;;;;;;;8.38;6.43;;;;;;;;;;5019537;28;20082;-86
2021/09/25 13:16:39;;;;;;;10.13;7.18;;;;;;;;;;5020008;28;20083;-83
2021/09/25 13:19:07;;;;;;;10.20;7.28;;;;;;;;;;5019534;28;20068;-84
2021/09/25 13:21:36;;;;;;;9.90;6.82;;;;;;;;;;5019753;28;20054;-84
2021/09/25 13:24:06;;;;;;;11.27;6.68;;;;;;;;;;5019364;28;20189;-85
2021/09/25 13:26:33;;;;;;;;;;;;;;;;;;5020536;28;20042;-85
2021/09/25 13:29:03;;;;;;;10.30;6.63;;;;;;;;;;5022113;28;20353;-85
2021/09/25 13:31:32;;;;;;;9.15;6.68;;;;;;;;;;5021114;28;20413;-85
2021/09/25 13:34:00;;;;;;;9.03;6.60;;;;;;;;;;5027077;28;20068;-86
2021/09/25 13:36:26;;;;;;;35.80;30.75;;;;;;;;;;5039294;28;20053;-85
2021/09/25 13:38:53;;;;;;;12.65;10.23;;;;;;;;;;5032631;28;20050;-85
2021/09/25 13:41:23;;;;;;;9.18;6.63;;;;;;;;;;5030932;28;20056;-85
2021/09/25 13:43:51;;;;;;;9.32;7.10;;;;;;;;;;5031758;28;20113;-86
2021/09/25 13:46:18;;;;;;;11.20;7.90;;;;;;;;;;5032344;28;20080;-85
2021/09/25 13:48:46;;;;;;;9.93;7.35;;;;;;;;;;5023469;28;20585;-85
2021/09/25 13:51:13;;;;;;;10.77;7.65;;;;;;;;;;5017212;28;20045;-84
2021/09/25 13:53:40;;;;;;;10.55;6.85;;;;;;;;;;5016820;28;20100;-84
2021/09/25 13:56:08;;;;;;;10.48;6.75;;;;;;;;;;5017467;28;20058;-85
2021/09/25 13:58:36;;;;;;;7.85;6.05;;;;;;;;;;5016840;28;20053;-85
2021/09/25 14:01:05;;;;;;;8.85;6.13;;;;;;;;;;5016525;28;20519;-85
2021/09/25 14:03:31;;;;;;;9.57;7.90;;;;;;;;;;5017064;28;20057;-85
2021/09/25 14:06:00;;;;;;;24.50;17.67;;;;;;;;;;5016725;28;20049;-85
2021/09/25 14:08:28;;;;;;;19.87;15.47;;;;;;;;;;5016349;28;20055;-84
2021/09/25 14:10:55;;;;;;;14.02;9.93;;;;;;;;;;5018470;28;20068;-83
2021/09/25 14:13:22;;;;;;;11.68;9.23;;;;;;;;;;5016277;28;20065;-85
2021/09/25 14:15:49;;;;;;;11.55;7.80;;;;;;;;;;5017030;28;20054;-85
2021/09/25 14:18:16;;;;;;;9.27;6.70;;;;;;;;;;5017824;28;20057;-85
2021/09/25 14:20:43;;;;;;;12.48;7.63;;;;;;;;;;5016914;28;20080;-85
2021/09/25 14:23:14;;;;;;;14.00;11.63;;;;;;;;;;5016628;28;20410;-85
2021/09/25 14:25:42;;;;;;;22.08;18.60;;;;;;;;;;5018132;28;20061;-84
2021/09/25 14:28:12;;;;;;;13.98;11.05;;;;;;;;;;5017931;28;20042;-83
2021/09/25 14:30:40;;;;;;;19.92;15.80;;;;;;;;;;5051866;23;20129;-67
2021/09/25 14:33:07;;;;;;;16.25;11.75;;;;;;;;;;5013599;28;20049;-68
2021/09/25 14:35:35;;;;;;;9.90;7.40;;;;;;;;;;5007516;28;20132;-68
2021/09/25 14:38:02;;;;;;;10.05;7.28;;;;;;;;;;5013329;28;20064;-68
2021/09/25 14:40:31;;;;;;;9.10;7.32;;;;;;;;;;5013469;28;20053;-68